Time;durP1;ratioP1;P1;durP2;ratioP2;P2;SDS_P1;SDS_P2;PMS_P1;PMS_P2;Temp;Humidity;BMP_temperature;BMP_pressure;BME280_temperature;BME280_humidity;BME280_pressure;Samples;Min_cycle;Max_cycle;Signal;HPM_P1;HPM_P2
2021/05/13 00:01:12;;;;;;;;;3.75;2.75;;;;;;;;3536752;39;111961;-71
2021/05/13 00:03:38;;;;;;;;;2.00;2.00;;;;;;;;3533724;39;113853;-71
2021/05/13 00:06:04;;;;;;;;;4.75;3.00;;;;;;;;3534017;39;111775;-71
2021/05/13 00:08:30;;;;;;;;;2.25;1.50;;;;;;;;3533418;39;112971;-71
2021/05/13 00:11:02;;;;;;;;;3.00;1.00;;;;;;;;3533611;39;114467;-71
2021/05/13 00:13:28;;;;;;;;;4.00;2.00;;;;;;;;3532368;39;111772;-71
2021/05/13 00:15:54;;;;;;;;;1.00;1.00;;;;;;;;3532237;39;112658;-71
2021/05/13 00:18:21;;;;;;;;;2.25;2.25;;;;;;;;3533665;39;114100;-71
2021/05/13 00:20:47;;;;;;;;;2.75;2.25;;;;;;;;3536722;39;111900;-71
2021/05/13 00:23:14;;;;;;;;;2.50;1.50;;;;;;;;3533279;39;114446;-70
2021/05/13 00:25:41;;;;;;;;;3.00;1.00;;;;;;;;3531979;39;111873;-70
2021/05/13 00:28:07;;;;;;;;;4.00;1.00;;;;;;;;3533885;39;113184;-70
2021/05/13 00:30:34;;;;;;;;;2.50;2.00;;;;;;;;3533482;39;114591;-70
2021/05/13 00:33:00;;;;;;;;;2.50;1.25;;;;;;;;3533804;39;112951;-70
2021/05/13 00:35:27;;;;;;;;;2.25;2.00;;;;;;;;3532453;39;112952;-70
2021/05/13 00:37:53;;;;;;;;;2.50;2.00;;;;;;;;3563239;22;114118;-71
2021/05/13 00:40:19;;;;;;;;;1.00;1.00;;;;;;;;3529415;39;111818;-71
2021/05/13 00:42:46;;;;;;;;;3.25;2.00;;;;;;;;3531008;39;113045;-71
2021/05/13 00:45:13;;;;;;;;;2.00;2.00;;;;;;;;3528749;39;112033;-71
2021/05/13 00:47:46;;;;;;;;;3.00;1.00;;;;;;;;3529089;39;113268;-71
2021/05/13 00:50:14;;;;;;;;;3.75;2.50;;;;;;;;3528197;39;113795;-71
2021/05/13 00:52:41;;;;;;;;;1.75;1.75;;;;;;;;3529042;39;111893;-71
2021/05/13 00:55:08;;;;;;;;;4.50;1.00;;;;;;;;3528262;39;113413;-71
2021/05/13 00:57:34;;;;;;;;;1.50;1.50;;;;;;;;3529043;39;114176;-71
2021/05/13 01:00:01;;;;;;;;;1.50;1.50;;;;;;;;3527938;39;112240;-71
2021/05/13 01:02:27;;;;;;;;;3.25;1.00;;;;;;;;3529892;39;113311;-71
2021/05/13 01:04:53;;;;;;;;;2.75;1.00;;;;;;;;3530255;39;113863;-71
2021/05/13 01:07:20;;;;;;;;;2.50;2.00;;;;;;;;3529266;39;113194;-71
2021/05/13 01:09:46;;;;;;;;;1.25;1.00;;;;;;;;3528087;39;113652;-70
2021/05/13 01:12:16;;;;;;;;;3.25;0.50;;;;;;;;3528624;39;112136;-71
2021/05/13 01:14:44;;;;;;;;;1.50;1.00;;;;;;;;3528790;39;113248;-70
2021/05/13 01:17:21;;;;;;;;;3.25;2.00;;;;;;;;3527954;39;113761;-70
2021/05/13 01:19:48;;;;;;;;;3.00;2.00;;;;;;;;3528294;39;111847;-70
2021/05/13 01:22:15;;;;;;;;;3.25;1.00;;;;;;;;3528691;39;113333;-71
2021/05/13 01:24:42;;;;;;;;;2.00;2.00;;;;;;;;3525706;39;112963;-71
2021/05/13 01:27:08;;;;;;;;;0.50;0.00;;;;;;;;3531514;39;111873;-71
2021/05/13 01:29:34;;;;;;;;;4.50;3.00;;;;;;;;3527686;39;114056;-71
2021/05/13 01:32:00;;;;;;;;;1.00;1.00;;;;;;;;3529236;39;111950;-71
2021/05/13 01:34:27;;;;;;;;;3.75;1.75;;;;;;;;3527925;39;113793;-71
2021/05/13 01:36:53;;;;;;;;;1.00;1.00;;;;;;;;3528910;39;113938;-71
2021/05/13 01:39:20;;;;;;;;;4.00;2.75;;;;;;;;3524470;39;113365;-71
2021/05/13 01:41:46;;;;;;;;;3.25;2.25;;;;;;;;3528934;39;113245;-71
2021/05/13 01:44:13;;;;;;;;;2.75;2.00;;;;;;;;3527857;39;113847;-71
2021/05/13 01:46:39;;;;;;;;;1.75;1.50;;;;;;;;3528278;39;111907;-71
2021/05/13 01:49:06;;;;;;;;;2.50;1.50;;;;;;;;3530902;39;113596;-71
2021/05/13 01:51:32;;;;;;;;;4.00;4.00;;;;;;;;3527795;39;111770;-72
2021/05/13 01:53:58;;;;;;;;;3.00;2.00;;;;;;;;3529241;39;113011;-71
2021/05/13 01:56:25;;;;;;;;;2.00;2.00;;;;;;;;3527060;39;114132;-71
2021/05/13 01:58:51;;;;;;;;;2.25;2.25;;;;;;;;3529244;39;112403;-71
2021/05/13 02:01:17;;;;;;;;;2.25;2.25;;;;;;;;3527827;39;113749;-71
2021/05/13 02:03:44;;;;;;;;;3.00;2.00;;;;;;;;3528053;39;113961;-70
2021/05/13 02:06:11;;;;;;;;;8.00;3.75;;;;;;;;3528132;39;112191;-71
2021/05/13 02:08:37;;;;;;;;;3.75;1.50;;;;;;;;3528057;39;114006;-71
2021/05/13 02:11:03;;;;;;;;;1.00;1.00;;;;;;;;3532738;39;113266;-72
2021/05/13 02:13:30;;;;;;;;;2.50;1.50;;;;;;;;3529279;39;113551;-72
2021/05/13 02:15:56;;;;;;;;;2.25;2.25;;;;;;;;3526979;39;113781;-72
2021/05/13 02:18:22;;;;;;;;;2.00;2.00;;;;;;;;3528966;39;112401;-72
2021/05/13 02:20:49;;;;;;;;;2.25;1.75;;;;;;;;3527841;39;113466;-72
2021/05/13 02:23:15;;;;;;;;;2.50;1.25;;;;;;;;3527889;39;113785;-71
2021/05/13 02:25:43;;;;;;;;;1.25;1.25;;;;;;;;3528040;39;111830;-71
2021/05/13 02:28:09;;;;;;;;;5.00;2.00;;;;;;;;3527728;39;113566;-72
2021/05/13 02:30:36;;;;;;;;;2.75;2.00;;;;;;;;3530761;39;114518;-72
2021/05/13 02:33:02;;;;;;;;;3.25;3.00;;;;;;;;3528207;39;113225;-72
2021/05/13 02:35:28;;;;;;;;;3.00;1.00;;;;;;;;3530030;39;113835;-71
2021/05/13 02:37:54;;;;;;;;;5.00;2.50;;;;;;;;3528861;39;112255;-71
2021/05/13 02:40:20;;;;;;;;;3.00;3.00;;;;;;;;3530458;39;113142;-71
2021/05/13 02:42:46;;;;;;;;;3.00;3.00;;;;;;;;3527202;39;112960;-71
2021/05/13 02:45:13;;;;;;;;;7.75;2.25;;;;;;;;3529555;39;112835;-71
2021/05/13 02:47:41;;;;;;;;;2.50;1.00;;;;;;;;3529540;39;113390;-71
2021/05/13 02:50:08;;;;;;;;;3.00;2.00;;;;;;;;3528610;39;113805;-71
2021/05/13 02:52:34;;;;;;;;;1.00;1.00;;;;;;;;3532703;39;112229;-72
2021/05/13 02:55:00;;;;;;;;;3.00;2.00;;;;;;;;3528732;39;113908;-71
2021/05/13 02:57:26;;;;;;;;;1.00;1.00;;;;;;;;3531817;39;111788;-72
2021/05/13 02:59:57;;;;;;;;;1.25;1.00;;;;;;;;3529504;39;113718;-71
2021/05/13 03:02:23;;;;;;;;;2.00;1.00;;;;;;;;3529642;39;114361;-72
2021/05/13 03:04:50;;;;;;;;;2.50;1.50;;;;;;;;3531145;39;111945;-72
2021/05/13 03:07:16;;;;;;;;;2.00;2.00;;;;;;;;3529490;39;113033;-72
2021/05/13 03:09:45;;;;;;;;;2.50;1.50;;;;;;;;3529123;39;113833;-72
2021/05/13 03:12:11;;;;;;;;;3.00;1.75;;;;;;;;3529146;39;111898;-71
2021/05/13 03:14:37;;;;;;;;;2.50;1.75;;;;;;;;3532813;39;113479;-72
2021/05/13 03:17:04;;;;;;;;;3.00;1.00;;;;;;;;3530389;39;112155;-71
2021/05/13 03:19:33;;;;;;;;;3.50;1.75;;;;;;;;3527179;39;112541;-71
2021/05/13 03:22:05;;;;;;;;;1.25;1.25;;;;;;;;3529449;39;114018;-72
2021/05/13 03:24:35;;;;;;;;;1.00;1.00;;;;;;;;3528883;39;112193;-72
2021/05/13 03:27:10;;;;;;;;;2.00;1.00;;;;;;;;3529859;39;113225;-71
2021/05/13 03:29:36;;;;;;;;;1.50;1.00;;;;;;;;3528672;39;113789;-72
2021/05/13 03:32:02;;;;;;;;;2.50;2.00;;;;;;;;3529779;39;112225;-72
2021/05/13 03:34:28;;;;;;;;;3.00;1.00;;;;;;;;3528685;39;113210;-72
2021/05/13 03:36:54;;;;;;;;;2.00;2.00;;;;;;;;3532287;39;113878;-70
2021/05/13 03:39:21;;;;;;;;;3.25;2.50;;;;;;;;3528743;39;113623;-70
2021/05/13 03:41:47;;;;;;;;;3.75;3.00;;;;;;;;3529413;39;113883;-70
2021/05/13 03:44:13;;;;;;;;;1.00;1.00;;;;;;;;3528851;39;112780;-71
2021/05/13 03:46:39;;;;;;;;;3.25;1.25;;;;;;;;3529255;39;113409;-71
2021/05/13 03:49:05;;;;;;;;;2.25;2.25;;;;;;;;3528917;39;114174;-71
2021/05/13 03:51:31;;;;;;;;;3.00;1.25;;;;;;;;3528745;39;112482;-71
2021/05/13 03:53:57;;;;;;;;;2.50;2.00;;;;;;;;3529809;39;113485;-71
2021/05/13 03:56:24;;;;;;;;;1.50;1.50;;;;;;;;3527828;39;113851;-70
2021/05/13 03:58:54;;;;;;;;;2.75;2.75;;;;;;;;3532915;39;112033;-72
2021/05/13 04:01:31;;;;;;;;;2.00;2.00;;;;;;;;3528073;39;112733;-71
2021/05/13 04:03:57;;;;;;;;;2.00;2.00;;;;;;;;3528191;39;112034;-71
2021/05/13 04:06:23;;;;;;;;;4.00;3.00;;;;;;;;3530062;39;113564;-72
2021/05/13 04:08:49;;;;;;;;;3.25;3.00;;;;;;;;3528111;39;113819;-71
2021/05/13 04:11:15;;;;;;;;;2.00;2.00;;;;;;;;3529408;39;111943;-72
2021/05/13 04:13:43;;;;;;;;;3.00;1.75;;;;;;;;3529127;39;113227;-73
2021/05/13 04:16:09;;;;;;;;;2.75;2.00;;;;;;;;3529913;39;113892;-69
2021/05/13 04:18:35;;;;;;;;;3.00;1.25;;;;;;;;3534379;39;111773;-68
2021/05/13 04:21:01;;;;;;;;;3.00;2.25;;;;;;;;3529567;39;113799;-70
2021/05/13 04:23:27;;;;;;;;;2.75;2.00;;;;;;;;3527777;39;112113;-68
2021/05/13 04:25:53;;;;;;;;;2.50;2.00;;;;;;;;3527608;39;113346;-70
2021/05/13 04:28:19;;;;;;;;;2.00;2.00;;;;;;;;3529137;39;114237;-70
2021/05/13 04:30:46;;;;;;;;;5.00;5.00;;;;;;;;3528466;39;111921;-70
2021/05/13 04:33:12;;;;;;;;;4.00;3.00;;;;;;;;3529177;39;113658;-69
2021/05/13 04:35:38;;;;;;;;;4.00;3.00;;;;;;;;3528530;39;114197;-69
2021/05/13 04:38:04;;;;;;;;;4.00;3.00;;;;;;;;3528814;39;112063;-69
2021/05/13 04:40:31;;;;;;;;;4.00;3.00;;;;;;;;3531710;39;113422;-69
2021/05/13 04:42:57;;;;;;;;;3.75;3.00;;;;;;;;3527262;39;112779;-69
2021/05/13 04:45:23;;;;;;;;;4.00;3.00;;;;;;;;3529912;39;113180;-69
2021/05/13 04:48:05;;;;;;;;;4.25;2.00;;;;;;;;3524325;39;113161;-70
2021/05/13 04:50:32;;;;;;;;;4.00;3.00;;;;;;;;3528497;39;111910;-69
2021/05/13 04:53:00;;;;;;;;;7.00;3.00;;;;;;;;3526147;39;112169;-69
2021/05/13 04:55:27;;;;;;;;;2.00;1.00;;;;;;;;3529059;39;113917;-70
2021/05/13 04:57:54;;;;;;;;;5.00;2.75;;;;;;;;3527703;39;111843;-70
2021/05/13 05:00:21;;;;;;;;;4.00;3.00;;;;;;;;3528033;39;114242;-68
2021/05/13 05:02:47;;;;;;;;;4.50;2.25;;;;;;;;3529918;39;113043;-68
2021/05/13 05:05:14;;;;;;;;;2.00;2.00;;;;;;;;3525976;39;112702;-68
2021/05/13 05:07:40;;;;;;;;;4.00;3.50;;;;;;;;3531300;39;114376;-68
2021/05/13 05:10:07;;;;;;;;;3.25;2.50;;;;;;;;3528748;39;111842;-68
2021/05/13 05:12:33;;;;;;;;;9.25;7.00;;;;;;;;3529206;39;113220;-68
2021/05/13 05:14:59;;;;;;;;;3.25;2.25;;;;;;;;3527650;39;114179;-69
2021/05/13 05:17:25;;;;;;;;;4.50;4.00;;;;;;;;3530033;39;112115;-68
2021/05/13 05:19:51;;;;;;;;;3.75;3.75;;;;;;;;3528034;39;113283;-69
2021/05/13 05:22:18;;;;;;;;;3.00;2.75;;;;;;;;3527032;39;113760;-69
2021/05/13 05:24:44;;;;;;;;;7.00;3.00;;;;;;;;3530981;39;112116;-69
2021/05/13 05:27:10;;;;;;;;;7.25;3.25;;;;;;;;3528327;39;113898;-82
2021/05/13 05:29:36;;;;;;;;;3.25;3.25;;;;;;;;3528258;39;112306;-76
2021/05/13 05:32:02;;;;;;;;;4.00;3.75;;;;;;;;3527688;39;113759;-71
2021/05/13 05:34:28;;;;;;;;;4.25;4.25;;;;;;;;3528401;39;114157;-72
2021/05/13 05:36:54;;;;;;;;;3.00;2.75;;;;;;;;3530705;39;111999;-72
2021/05/13 05:39:21;;;;;;;;;4.75;3.75;;;;;;;;3526061;39;113271;-72
2021/05/13 05:41:47;;;;;;;;;4.75;4.75;;;;;;;;3526899;39;114023;-77
2021/05/13 05:44:14;;;;;;;;;4.00;4.00;;;;;;;;3528112;39;111965;-71
2021/05/13 05:46:40;;;;;;;;;4.75;3.25;;;;;;;;3530502;39;113260;-72
2021/05/13 05:49:06;;;;;;;;;5.00;5.00;;;;;;;;3527639;39;112440;-72
2021/05/13 05:51:32;;;;;;;;;6.00;4.00;;;;;;;;3527535;39;113279;-72
2021/05/13 05:53:58;;;;;;;;;6.50;4.00;;;;;;;;3527809;39;113913;-71
2021/05/13 05:56:25;;;;;;;;;7.50;5.75;;;;;;;;3526772;39;111862;-71
2021/05/13 05:58:51;;;;;;;;;2.75;2.25;;;;;;;;3527125;39;113373;-72
2021/05/13 06:01:17;;;;;;;;;4.00;3.00;;;;;;;;3528037;39;113999;-74
2021/05/13 06:03:43;;;;;;;;;6.75;3.75;;;;;;;;3527406;39;112014;-73
2021/05/13 06:06:09;;;;;;;;;4.25;3.25;;;;;;;;3527663;39;113788;-72
2021/05/13 06:08:35;;;;;;;;;4.25;2.75;;;;;;;;3531197;39;113800;-73
2021/05/13 06:11:01;;;;;;;;;3.00;3.00;;;;;;;;3528586;39;113498;-74
2021/05/13 06:13:28;;;;;;;;;4.50;4.50;;;;;;;;3529437;39;114172;-66
2021/05/13 06:15:55;;;;;;;;;7.00;4.25;;;;;;;;3530346;39;111815;-70
2021/05/13 06:18:21;;;;;;;;;4.25;4.25;;;;;;;;3528326;39;113242;-69
2021/05/13 06:20:47;;;;;;;;;7.00;5.75;;;;;;;;3529622;39;114004;-75
2021/05/13 06:23:13;;;;;;;;;3.00;3.00;;;;;;;;3528340;39;114293;-73
2021/05/13 06:25:39;;;;;;;;;5.00;4.50;;;;;;;;3529190;39;113324;-71
2021/05/13 06:28:07;;;;;;;;;3.25;3.25;;;;;;;;3531078;39;114096;-70
2021/05/13 06:30:34;;;;;;;;;8.50;5.00;;;;;;;;3528826;39;112801;-76
2021/05/13 06:33:00;;;;;;;;;7.00;7.00;;;;;;;;3528923;39;113653;-73
2021/05/13 06:35:26;;;;;;;;;4.00;4.00;;;;;;;;3526256;39;112054;-71
2021/05/13 06:37:52;;;;;;;;;4.00;4.00;;;;;;;;3528249;39;113277;-74
2021/05/13 06:40:18;;;;;;;;;4.50;4.00;;;;;;;;3529451;39;113847;-70
2021/05/13 06:42:45;;;;;;;;;7.75;5.50;;;;;;;;3528692;39;113163;-72
2021/05/13 06:45:12;;;;;;;;;5.50;4.00;;;;;;;;3528484;39;113323;-71
2021/05/13 06:47:40;;;;;;;;;3.00;3.00;;;;;;;;3528597;39;113918;-73
2021/05/13 06:50:07;;;;;;;;;4.25;3.00;;;;;;;;3531212;39;112324;-72
2021/05/13 06:52:33;;;;;;;;;3.50;3.00;;;;;;;;3528457;39;113830;-71
2021/05/13 06:54:59;;;;;;;;;2.00;2.00;;;;;;;;3529143;39;112048;-74
2021/05/13 06:57:25;;;;;;;;;3.00;3.00;;;;;;;;3528043;39;113713;-71
2021/05/13 06:59:51;;;;;;;;;4.00;3.50;;;;;;;;3529053;39;113883;-73
2021/05/13 07:02:18;;;;;;;;;3.50;3.50;;;;;;;;3528075;39;112067;-72
2021/05/13 07:04:44;;;;;;;;;4.00;4.00;;;;;;;;3529283;39;113568;-71
2021/05/13 07:07:12;;;;;;;;;3.50;2.50;;;;;;;;3528237;39;113802;-71
2021/05/13 07:09:38;;;;;;;;;2.00;2.00;;;;;;;;3528590;39;112699;-72
2021/05/13 07:12:05;;;;;;;;;4.25;4.25;;;;;;;;3532657;39;113566;-71
2021/05/13 07:14:31;;;;;;;;;3.00;3.00;;;;;;;;3530120;39;112294;-71
2021/05/13 07:16:57;;;;;;;;;4.00;2.75;;;;;;;;3529893;39;113457;-73
2021/05/13 07:19:23;;;;;;;;;2.00;2.00;;;;;;;;3529821;39;113860;-70
2021/05/13 07:21:50;;;;;;;;;3.00;3.00;;;;;;;;3531675;39;112039;-71
2021/05/13 07:24:16;;;;;;;;;3.00;3.00;;;;;;;;3530887;39;113253;-75
2021/05/13 07:26:42;;;;;;;;;2.50;2.50;;;;;;;;3531082;39;114334;-71
2021/05/13 07:29:09;;;;;;;;;3.00;3.00;;;;;;;;3530483;39;111941;-72
2021/05/13 07:31:35;;;;;;;;;3.00;3.00;;;;;;;;3531318;39;113259;-70
2021/05/13 07:34:01;;;;;;;;;4.25;2.75;;;;;;;;3532218;39;114069;-70
2021/05/13 07:36:28;;;;;;;;;1.50;1.50;;;;;;;;3529696;39;113320;-71
2021/05/13 07:38:55;;;;;;;;;2.00;2.00;;;;;;;;3528298;39;113856;-71
2021/05/13 07:41:22;;;;;;;;;2.75;2.75;;;;;;;;3529501;39;112402;-70
2021/05/13 07:43:50;;;;;;;;;3.00;3.00;;;;;;;;3529505;39;113297;-72
2021/05/13 07:46:17;;;;;;;;;3.00;2.75;;;;;;;;3529539;39;113942;-72
2021/05/13 07:48:43;;;;;;;;;3.00;2.00;;;;;;;;3530825;39;111986;-72
2021/05/13 07:51:10;;;;;;;;;3.25;2.00;;;;;;;;3529868;39;113445;-72
2021/05/13 07:53:36;;;;;;;;;2.25;2.25;;;;;;;;3529496;39;113890;-69
2021/05/13 07:56:03;;;;;;;;;3.50;2.25;;;;;;;;3531512;39;111934;-73
2021/05/13 07:58:29;;;;;;;;;5.25;2.25;;;;;;;;3527688;39;113858;-72
2021/05/13 08:00:55;;;;;;;;;3.25;3.00;;;;;;;;3529137;39;111850;-71
2021/05/13 08:03:21;;;;;;;;;1.75;1.75;;;;;;;;3529062;39;113416;-71
2021/05/13 08:05:47;;;;;;;;;4.50;3.00;;;;;;;;3529524;39;113449;-72
2021/05/13 08:08:13;;;;;;;;;3.00;3.00;;;;;;;;3530291;39;112283;-71
2021/05/13 08:10:39;;;;;;;;;4.00;3.75;;;;;;;;3524018;39;113108;-74
2021/05/13 08:13:06;;;;;;;;;3.50;3.50;;;;;;;;3527622;39;113952;-74
2021/05/13 08:15:32;;;;;;;;;4.75;4.00;;;;;;;;3528746;39;112018;-73
2021/05/13 08:17:58;;;;;;;;;7.75;5.50;;;;;;;;3528915;39;113896;-72
2021/05/13 08:20:24;;;;;;;;;8.00;7.00;;;;;;;;3530093;39;112191;-73
2021/05/13 08:22:51;;;;;;;;;7.50;5.00;;;;;;;;3529135;39;113772;-73
2021/05/13 08:25:19;;;;;;;;;2.75;2.75;;;;;;;;3528925;39;114542;-73
2021/05/13 08:27:47;;;;;;;;;5.00;3.25;;;;;;;;3527758;39;112066;-75
2021/05/13 08:30:15;;;;;;;;;3.75;3.50;;;;;;;;3529053;39;114039;-73
2021/05/13 08:32:41;;;;;;;;;7.50;4.75;;;;;;;;3529590;39;113903;-73
2021/05/13 08:35:07;;;;;;;;;10.00;6.75;;;;;;;;3529703;39;113242;-72
2021/05/13 08:37:33;;;;;;;;;7.25;7.00;;;;;;;;3529267;39;114003;-72
2021/05/13 08:39:59;;;;;;;;;4.50;4.50;;;;;;;;3527603;39;112165;-72
2021/05/13 08:42:25;;;;;;;;;7.25;7.25;;;;;;;;3528224;39;114473;-72
2021/05/13 08:44:51;;;;;;;;;8.00;7.00;;;;;;;;3526372;39;113947;-72
2021/05/13 08:47:19;;;;;;;;;8.75;7.00;;;;;;;;3528053;39;112164;-72
2021/05/13 08:49:45;;;;;;;;;7.50;7.00;;;;;;;;3527230;39;113746;-72
2021/05/13 08:52:11;;;;;;;;;9.75;9.00;;;;;;;;3527739;39;113765;-72
2021/05/13 08:54:49;;;;;;;;;10.75;8.00;;;;;;;;3527957;39;112503;-71
2021/05/13 08:57:15;;;;;;;;;8.50;8.50;;;;;;;;3527072;39;114348;-71
2021/05/13 08:59:44;;;;;;;;;8.25;8.25;;;;;;;;3529810;39;113628;-73
2021/05/13 09:02:11;;;;;;;;;7.50;7.00;;;;;;;;3526894;39;113673;-79
2021/05/13 09:04:39;;;;;;;;;3.75;3.75;;;;;;;;3525719;39;113974;-75
2021/05/13 09:07:15;;;;;;;;;6.50;4.75;;;;;;;;3526469;39;112653;-74
2021/05/13 09:09:55;;;;;;;;;7.75;4.25;;;;;;;;3528318;39;112657;-75
2021/05/13 09:12:21;;;;;;;;;7.00;3.75;;;;;;;;3526995;39;114176;-73
2021/05/13 09:14:55;;;;;;;;;5.75;4.00;;;;;;;;3528984;39;112004;-75
2021/05/13 09:17:23;;;;;;;;;4.00;4.00;;;;;;;;3525941;39;113746;-74
2021/05/13 09:19:50;;;;;;;;;5.50;4.00;;;;;;;;3527999;39;114670;-73
2021/05/13 09:22:21;;;;;;;;;3.50;2.50;;;;;;;;3531983;39;112383;-73
2021/05/13 09:24:49;;;;;;;;;5.50;4.75;;;;;;;;3530089;39;113953;-73
2021/05/13 09:27:16;;;;;;;;;3.50;3.00;;;;;;;;3527916;39;112881;-73
2021/05/13 09:29:42;;;;;;;;;3.00;2.00;;;;;;;;3526802;39;113362;-73
2021/05/13 09:32:18;;;;;;;;;4.25;4.25;;;;;;;;3526630;39;114678;-73
2021/05/13 09:34:44;;;;;;;;;3.25;3.25;;;;;;;;3530353;39;112351;-72
2021/05/13 09:37:11;;;;;;;;;3.00;3.00;;;;;;;;3527293;39;113457;-73
2021/05/13 09:39:44;;;;;;;;;3.50;2.50;;;;;;;;3526520;39;113895;-72
2021/05/13 09:42:10;;;;;;;;;4.75;4.00;;;;;;;;3528710;39;112187;-72
2021/05/13 09:44:37;;;;;;;;;6.00;4.50;;;;;;;;3532932;39;113835;-72
2021/05/13 09:47:13;;;;;;;;;4.75;4.00;;;;;;;;3529810;39;112303;-72
2021/05/13 09:49:52;;;;;;;;;9.00;8.50;;;;;;;;3528817;39;113267;-72
2021/05/13 09:52:33;;;;;;;;;27.00;24.50;;;;;;;;3527804;39;113802;-72
2021/05/13 09:55:10;;;;;;;;;4.75;4.25;;;;;;;;3528915;39;112621;-73
2021/05/13 09:57:36;;;;;;;;;6.25;4.75;;;;;;;;3524828;39;113893;-74
2021/05/13 10:00:03;;;;;;;;;7.75;5.00;;;;;;;;3526851;39;114285;-72
2021/05/13 10:02:29;;;;;;;;;5.50;2.00;;;;;;;;3530612;39;112172;-72
2021/05/13 10:04:55;;;;;;;;;1.50;1.00;;;;;;;;3531187;39;113420;-72
2021/05/13 10:07:21;;;;;;;;;3.50;3.00;;;;;;;;3531855;39;114037;-72
2021/05/13 10:09:47;;;;;;;;;3.25;2.25;;;;;;;;3531497;39;114311;-72
2021/05/13 10:12:14;;;;;;;;;4.00;4.00;;;;;;;;3529711;39;114046;-72
2021/05/13 10:14:41;;;;;;;;;3.25;3.00;;;;;;;;3530746;39;112240;-72
2021/05/13 10:17:10;;;;;;;;;5.00;4.00;;;;;;;;3529849;39;113459;-72
2021/05/13 10:19:42;;;;;;;;;4.75;3.75;;;;;;;;3528501;39;114045;-72
2021/05/13 10:22:09;;;;;;;;;4.75;4.00;;;;;;;;3529804;39;111938;-73
2021/05/13 10:24:36;;;;;;;;;3.00;3.00;;;;;;;;3530603;39;113404;-73
2021/05/13 10:27:15;;;;;;;;;4.75;4.00;;;;;;;;3528437;39;113926;-74
2021/05/13 10:29:41;;;;;;;;;7.00;3.75;;;;;;;;3533693;39;112122;-72
2021/05/13 10:32:11;;;;;;;;;4.50;3.25;;;;;;;;3530988;39;114332;-74
2021/05/13 10:34:50;;;;;;;;;3.25;3.25;;;;;;;;3527707;39;112086;-74
2021/05/13 10:37:18;;;;;;;;;6.00;5.00;;;;;;;;3528649;39;113828;-74
2021/05/13 10:40:05;;;;;;;;;3.50;3.50;;;;;;;;3529854;39;113842;-75
2021/05/13 10:42:32;;;;;;;;;3.75;3.00;;;;;;;;3529269;39;112160;-79
2021/05/13 10:44:59;;;;;;;;;8.25;6.00;;;;;;;;3529671;39;113399;-72
2021/05/13 10:47:27;;;;;;;;;13.25;11.50;;;;;;;;3530061;39;114067;-73
2021/05/13 10:49:53;;;;;;;;;6.75;4.75;;;;;;;;3530649;39;112129;-73
2021/05/13 10:52:33;;;;;;;;;3.00;3.00;;;;;;;;3529298;39;113978;-74
2021/05/13 10:54:59;;;;;;;;;5.00;5.00;;;;;;;;3528150;39;112337;-73
2021/05/13 10:57:25;;;;;;;;;6.25;6.25;;;;;;;;3529719;39;113261;-74
2021/05/13 11:00:22;;;;;;;;;5.75;4.00;;;;;;;;3527381;39;114333;-73
2021/05/13 11:02:49;;;;;;;;;4.75;3.00;;;;;;;;3527800;39;112270;-72
2021/05/13 11:05:38;;;;;;;;;4.50;3.25;;;;;;;;3529397;39;113250;-73
2021/05/13 11:08:24;;;;;;;;;8.50;4.00;;;;;;;;3528103;39;114242;-72
2021/05/13 11:10:54;;;;;;;;;4.50;4.00;;;;;;;;3530234;39;112293;-73
2021/05/13 11:13:21;;;;;;;;;5.00;5.00;;;;;;;;3532308;39;113959;-73
2021/05/13 11:15:49;;;;;;;;;6.00;6.00;;;;;;;;3527756;39;111890;-73
2021/05/13 11:18:17;;;;;;;;;6.00;5.00;;;;;;;;3529677;39;113362;-74
2021/05/13 11:20:51;;;;;;;;;5.75;5.75;;;;;;;;3527716;39;113988;-73
2021/05/13 11:23:21;;;;;;;;;5.00;5.00;;;;;;;;3527999;39;111855;-72
2021/05/13 11:25:49;;;;;;;;;4.25;4.25;;;;;;;;3527985;39;113536;-72
2021/05/13 11:28:19;;;;;;;;;4.75;4.75;;;;;;;;3529186;39;113876;-74
2021/05/13 11:30:46;;;;;;;;;4.50;4.00;;;;;;;;3527929;39;112245;-74
2021/05/13 11:33:12;;;;;;;;;9.00;3.75;;;;;;;;3528983;39;113111;-73
2021/05/13 11:35:39;;;;;;;;;4.00;4.00;;;;;;;;3530745;39;114067;-73
2021/05/13 11:38:18;;;;;;;;;8.50;6.00;;;;;;;;3528447;39;113275;-73
2021/05/13 11:40:48;;;;;;;;;6.50;5.00;;;;;;;;3526620;39;113807;-73
2021/05/13 11:43:14;;;;;;;;;8.25;5.00;;;;;;;;3529433;39;112331;-77
2021/05/13 11:45:41;;;;;;;;;5.25;4.75;;;;;;;;3528623;39;113892;-77
2021/05/13 11:48:18;;;;;;;;;5.75;5.00;;;;;;;;3528746;39;113910;-76
2021/05/13 11:50:44;;;;;;;;;5.00;4.00;;;;;;;;3528504;39;111863;-78
2021/05/13 11:53:11;;;;;;;;;5.25;4.00;;;;;;;;3529436;39;113159;-76
2021/05/13 11:55:39;;;;;;;;;7.00;6.00;;;;;;;;3528428;39;113860;-75
2021/05/13 11:58:05;;;;;;;;;5.00;3.25;;;;;;;;3533700;39;112825;-72
2021/05/13 12:00:31;;;;;;;;;5.75;5.75;;;;;;;;3527980;39;114011;-77
2021/05/13 12:03:15;;;;;;;;;6.75;6.00;;;;;;;;3527243;39;112566;-79
2021/05/13 12:05:46;;;;;;;;;5.75;5.75;;;;;;;;3527045;39;113665;-80
2021/05/13 12:08:14;;;;;;;;;4.25;4.00;;;;;;;;3529310;39;114498;-78
2021/05/13 12:10:40;;;;;;;;;8.75;6.00;;;;;;;;3529624;39;111794;-76
2021/05/13 12:13:06;;;;;;;;;7.00;5.00;;;;;;;;3528867;39;113351;-77
2021/05/13 12:15:32;;;;;;;;;6.00;4.00;;;;;;;;3527429;39;113816;-76
2021/05/13 12:17:58;;;;;;;;;4.75;4.75;;;;;;;;3527201;39;113155;-77
2021/05/13 12:20:24;;;;;;;;;1.50;1.25;;;;;;;;3531631;39;113204;-77
2021/05/13 12:22:52;;;;;;;;;5.25;3.00;;;;;;;;3527615;39;112035;-77
2021/05/13 12:25:19;;;;;;;;;1.50;1.50;;;;;;;;3529676;39;113445;-76
2021/05/13 12:27:45;;;;;;;;;2.25;1.25;;;;;;;;3527409;39;114357;-77
2021/05/13 12:30:12;;;;;;;;;5.00;3.00;;;;;;;;3529486;39;111960;-77
2021/05/13 19:37:31;;;;;;;;;6.50;5.00;;;;;;;;3540134;39;1197453;-74
2021/05/13 19:39:59;;;;;;;;;7.00;4.25;;;;;;;;3576818;39;113898;-77
2021/05/13 19:42:25;;;;;;;;;7.75;4.50;;;;;;;;3577027;39;111978;-76
2021/05/13 19:44:51;;;;;;;;;5.50;3.25;;;;;;;;3576944;39;113261;-73
2021/05/13 19:47:17;;;;;;;;;0.00;0.00;;;;;;;;3574813;39;113980;-73
2021/05/13 19:49:43;;;;;;;;;5.00;4.00;;;;;;;;3575004;39;112038;-72
2021/05/13 19:52:09;;;;;;;;;4.75;3.00;;;;;;;;3573830;39;113123;-73
2021/05/13 19:54:36;;;;;;;;;5.00;3.00;;;;;;;;3577191;39;114052;-72
2021/05/13 19:57:05;;;;;;;;;9.00;2.50;;;;;;;;3578100;39;111877;-72
2021/05/13 19:59:32;;;;;;;;;8.00;4.50;;;;;;;;3574118;39;113342;-73
2021/05/13 20:02:10;;;;;;;;;1.50;1.50;;;;;;;;3574331;39;112387;-72
2021/05/13 20:04:47;;;;;;;;;4.50;4.25;;;;;;;;3572938;39;113858;-73
2021/05/13 20:07:19;;;;;;;;;4.00;4.00;;;;;;;;3577598;39;113863;-74
2021/05/13 20:09:57;;;;;;;;;4.25;3.25;;;;;;;;3573186;39;112075;-74
2021/05/13 20:12:23;;;;;;;;;3.50;3.50;;;;;;;;3578052;39;113618;-74
2021/05/13 20:14:49;;;;;;;;;4.00;3.25;;;;;;;;3578592;39;113728;-72
2021/05/13 20:17:17;;;;;;;;;4.00;3.00;;;;;;;;3576502;39;112915;-72
2021/05/13 20:19:44;;;;;;;;;2.50;2.50;;;;;;;;3578680;39;113192;-75
2021/05/13 20:22:13;;;;;;;;;5.75;2.25;;;;;;;;3577201;39;113113;-74
2021/05/13 20:24:45;;;;;;;;;3.75;3.75;;;;;;;;3573585;39;113029;-75
2021/05/13 20:27:17;;;;;;;;;5.00;3.00;;;;;;;;3572487;39;114365;-76
2021/05/13 20:29:43;;;;;;;;;4.50;3.00;;;;;;;;3573299;39;112266;-76
2021/05/13 20:32:09;;;;;;;;;6.25;3.25;;;;;;;;3576256;39;113629;-75
2021/05/13 20:34:35;;;;;;;;;3.25;3.25;;;;;;;;3575288;39;114261;-73
2021/05/13 20:37:01;;;;;;;;;5.50;3.50;;;;;;;;3575801;39;112573;-77
2021/05/13 20:39:29;;;;;;;;;8.50;3.50;;;;;;;;3574571;39;114279;-75
2021/05/13 20:41:55;;;;;;;;;8.25;4.00;;;;;;;;3572687;39;113956;-73
2021/05/13 20:44:25;;;;;;;;;4.00;3.00;;;;;;;;3574292;39;113747;-72
2021/05/13 20:46:51;;;;;;;;;8.00;3.50;;;;;;;;3569651;39;114512;-73
2021/05/13 20:49:20;;;;;;;;;4.75;2.75;;;;;;;;3566863;39;112172;-74
2021/05/13 20:51:57;;;;;;;;;7.75;2.00;;;;;;;;3569963;39;113664;-75
2021/05/13 20:57:27;;;;;;;;;4.00;2.25;;;;;;;;3568032;39;111679;-76
2021/05/13 20:59:54;;;;;;;;;4.00;2.00;;;;;;;;3566709;39;113537;-73
2021/05/13 21:02:20;;;;;;;;;8.00;4.00;;;;;;;;3569557;39;113938;-76
2021/05/13 21:04:48;;;;;;;;;4.25;3.50;;;;;;;;3567555;39;112263;-73
2021/05/13 21:07:19;;;;;;;;;4.25;3.00;;;;;;;;3567301;39;113967;-73
2021/05/13 21:12:41;;;;;;;;;7.50;5.50;;;;;;;;3566956;39;113133;-75
2021/05/13 21:20:41;;;;;;;;;4.50;2.00;;;;;;;;3568366;39;112580;-74
2021/05/13 21:28:35;;;;;;;;;3.75;3.75;;;;;;;;3567859;39;112998;-75
2021/05/13 21:31:02;;;;;;;;;1.50;1.50;;;;;;;;3569914;39;112073;-75
2021/05/13 21:33:29;;;;;;;;;7.50;3.00;;;;;;;;3567075;39;113303;-76
2021/05/13 21:35:55;;;;;;;;;3.75;2.00;;;;;;;;3566313;39;114393;-74
2021/05/13 21:38:21;;;;;;;;;2.00;2.00;;;;;;;;3569404;39;112349;-75
2021/05/13 21:40:47;;;;;;;;;3.25;2.00;;;;;;;;3568718;39;113158;-74
2021/05/13 21:43:13;;;;;;;;;2.50;2.25;;;;;;;;3568389;39;113912;-76
2021/05/13 21:45:39;;;;;;;;;5.00;2.75;;;;;;;;3568181;39;111747;-76
2021/05/13 21:48:24;;;;;;;;;3.00;3.00;;;;;;;;3569181;39;113193;-74
2021/05/13 21:50:50;;;;;;;;;4.00;2.50;;;;;;;;3570133;39;112343;-77
2021/05/13 21:53:16;;;;;;;;;6.00;1.75;;;;;;;;3568126;39;112938;-81